createdAt,value
2024-02-01T00:02:18.046Z,100115.59
2024-02-01T00:04:44.752Z,100112.44
2024-02-01T00:07:11.773Z,100117.97
2024-02-01T00:09:38.577Z,100108.66
2024-02-01T00:12:05.664Z,100097.25
2024-02-01T00:14:32.391Z,100104.94
2024-02-01T00:16:59.045Z,100109.47
2024-02-01T00:19:25.756Z,100110.63
2024-02-01T00:21:52.715Z,100100.94
2024-02-01T00:24:19.447Z,100087.28
2024-02-01T00:26:46.204Z,100087.91
2024-02-01T00:29:13.027Z,100094.44
2024-02-01T00:31:39.689Z,100092.81
2024-02-01T00:34:06.578Z,100090.63
2024-02-01T00:36:33.355Z,100092.59
2024-02-01T00:39:00.105Z,100089.38
2024-02-01T00:41:27.484Z,100090.00
2024-02-01T00:43:54.169Z,100097.91
2024-02-01T00:46:20.944Z,100088.56
2024-02-01T00:48:47.753Z,100070.78
2024-02-01T00:51:14.455Z,100095.31
2024-02-01T00:53:44.247Z,100067.50
2024-02-01T00:56:10.983Z,100071.94
2024-02-01T00:58:37.630Z,100074.88
2024-02-01T01:01:04.738Z,100068.34
2024-02-01T01:03:31.551Z,100059.47
2024-02-01T01:05:58.351Z,100066.78
2024-02-01T01:08:25.346Z,100066.97
2024-02-01T01:10:51.965Z,100065.56
2024-02-01T01:13:18.675Z,100058.22
2024-02-01T01:15:45.434Z,100060.00
2024-02-01T01:18:12.892Z,100065.75
2024-02-01T01:20:39.591Z,100063.75
2024-02-01T01:23:06.508Z,100064.31
2024-02-01T01:25:33.476Z,100058.34
2024-02-01T01:28:00.197Z,100060.31
2024-02-01T01:30:26.825Z,100050.88
2024-02-01T01:32:53.569Z,100046.75
2024-02-01T01:35:20.238Z,100049.94
2024-02-01T01:37:46.982Z,100056.09
2024-02-01T01:40:13.674Z,100054.50
2024-02-01T01:42:44.904Z,100053.91
2024-02-01T01:45:11.604Z,100051.75
2024-02-01T01:47:38.929Z,100051.94
2024-02-01T01:50:07.324Z,100057.72
2024-02-01T01:52:37.441Z,100050.25
2024-02-01T01:55:06.292Z,100045.75
2024-02-01T01:57:33.596Z,100031.91
2024-02-01T02:00:01.151Z,100045.97
2024-02-01T02:02:30.880Z,100032.53
2024-02-01T02:04:58.478Z,100030.34
2024-02-01T02:07:25.112Z,100033.53
2024-02-01T02:09:52.609Z,100032.53
2024-02-01T02:12:19.581Z,100033.34
2024-02-01T02:15:03.221Z,100026.22
2024-02-01T02:17:31.107Z,100013.53
2024-02-01T02:20:18.451Z,100028.78
2024-02-01T02:22:47.115Z,100022.25
2024-02-01T02:25:15.080Z,100005.19
2024-02-01T02:27:43.056Z,99999.44
2024-02-01T02:30:13.288Z,99988.16
2024-02-01T02:32:40.758Z,99999.66
2024-02-01T02:35:15.526Z,99970.31
2024-02-01T02:37:50.046Z,99973.25
2024-02-01T02:40:21.654Z,99967.69
2024-02-01T02:42:48.656Z,99976.59
2024-02-01T02:45:16.163Z,99977.59
2024-02-01T02:47:43.287Z,99973.44
2024-02-01T02:50:10.349Z,99989.09
2024-02-01T02:52:39.198Z,99986.34
2024-02-01T02:55:07.289Z,99989.91
2024-02-01T02:57:35.244Z,100000.63
2024-02-01T03:00:06.691Z,100014.09
2024-02-01T03:02:34.097Z,100002.38
2024-02-01T03:05:02.599Z,99999.00
2024-02-01T03:07:29.962Z,99999.00
2024-02-01T03:09:57.023Z,100001.56
2024-02-01T03:12:23.871Z,100009.84
2024-02-01T03:14:51.883Z,100004.25
2024-02-01T03:17:20.067Z,99987.91
2024-02-01T03:19:52.236Z,99992.19
2024-02-01T03:22:22.189Z,99988.31
2024-02-01T03:24:59.669Z,99972.09
2024-02-01T03:27:26.567Z,99973.56
2024-02-01T03:29:53.195Z,99968.13
2024-02-01T03:32:20.717Z,99972.03
2024-02-01T03:34:47.557Z,99968.53
2024-02-01T03:37:16.215Z,99967.25
2024-02-01T03:39:43.294Z,99958.66
2024-02-01T03:42:10.410Z,99953.19
2024-02-01T03:44:41.474Z,99950.56
2024-02-01T03:47:11.013Z,99951.66
2024-02-01T03:49:40.740Z,99948.75
2024-02-01T03:52:10.644Z,99939.72
2024-02-01T03:54:38.947Z,99942.13
2024-02-01T03:57:06.631Z,99950.03
2024-02-01T03:59:33.796Z,99942.63
2024-02-01T04:02:05.556Z,99942.97
2024-02-01T04:04:32.718Z,99942.84
2024-02-01T04:07:00.026Z,99949.22
2024-02-01T04:09:26.915Z,99945.50
2024-02-01T04:11:55.958Z,99948.78
2024-02-01T04:14:22.801Z,99953.09
2024-02-01T04:16:49.504Z,99941.97
2024-02-01T04:19:16.313Z,99943.84
2024-02-01T04:21:47.620Z,99951.25
2024-02-01T04:24:14.564Z,99958.44
2024-02-01T04:26:41.345Z,99952.84
2024-02-01T04:29:11.217Z,99949.22
2024-02-01T04:31:38.210Z,99943.84
2024-02-01T04:34:05.357Z,99958.78
2024-02-01T04:36:32.297Z,99953.41
2024-02-01T04:38:59.101Z,99956.56
2024-02-01T04:41:26.082Z,99969.50
2024-02-01T04:43:52.829Z,99973.88
2024-02-01T04:46:19.896Z,99975.31
2024-02-01T04:48:46.773Z,99973.75
2024-02-01T04:51:13.512Z,99981.06
2024-02-01T04:53:40.233Z,99987.47
2024-02-01T04:56:09.277Z,99993.50
2024-02-01T04:58:35.996Z,99991.78
2024-02-01T05:01:11.372Z,99993.16
2024-02-01T05:03:39.316Z,99993.50
2024-02-01T05:06:09.216Z,99993.38
2024-02-01T05:08:36.370Z,99990.56
2024-02-01T05:11:03.126Z,99997.16
2024-02-01T05:13:31.616Z,100009.53
2024-02-01T05:15:59.932Z,99996.81
2024-02-01T05:18:28.801Z,99998.97
2024-02-01T05:20:56.127Z,99989.41
2024-02-01T05:23:23.014Z,99984.31
2024-02-01T05:25:49.677Z,99983.53
2024-02-01T05:28:16.337Z,99983.97
2024-02-01T05:30:45.843Z,99978.56
2024-02-01T05:33:12.813Z,99972.41
2024-02-01T05:35:39.862Z,99976.00
2024-02-01T05:38:09.487Z,99968.66
2024-02-01T05:40:38.518Z,99976.41
2024-02-01T05:43:05.952Z,99973.03
2024-02-01T05:45:35.215Z,99973.25
2024-02-01T05:48:02.235Z,99969.22
2024-02-01T05:50:29.459Z,99977.56
2024-02-01T05:52:56.826Z,99972.41
2024-02-01T05:55:23.678Z,99979.16
2024-02-01T05:57:50.339Z,99965.78
2024-02-01T06:00:23.859Z,99968.94
2024-02-01T06:02:51.652Z,99966.13
2024-02-01T06:05:21.782Z,99964.69
2024-02-01T06:07:48.713Z,99955.16
2024-02-01T06:10:15.499Z,99958.75
2024-02-01T06:12:42.207Z,99962.53
2024-02-01T06:15:12.547Z,99965.94
2024-02-01T06:17:39.631Z,99969.50
2024-02-01T06:20:07.226Z,99969.09
2024-02-01T06:22:34.129Z,99965.72
2024-02-01T06:25:00.753Z,99982.59
2024-02-01T06:27:27.527Z,99980.94
2024-02-01T06:29:54.229Z,99976.09
2024-02-01T06:32:22.377Z,99973.44
2024-02-01T06:34:59.638Z,99982.91
2024-02-01T06:37:31.174Z,99996.22
2024-02-01T06:40:17.909Z,99992.59
2024-02-01T06:43:09.942Z,99996.22
2024-02-01T06:45:49.010Z,100002.59
2024-02-01T06:48:16.148Z,100004.19
2024-02-01T06:51:03.183Z,99989.59
2024-02-01T06:53:38.462Z,99976.78
2024-02-01T06:56:09.102Z,99992.88
2024-02-01T06:58:49.930Z,99995.03
2024-02-01T07:01:26.088Z,99999.47
2024-02-01T07:03:58.811Z,100002.19
2024-02-01T07:09:18.558Z,100018.28
2024-02-01T07:12:01.528Z,100012.88
2024-02-01T07:14:38.364Z,100012.22
2024-02-01T07:17:28.074Z,100007.84
2024-02-01T07:19:57.660Z,100013.97
2024-02-01T07:22:40.996Z,100011.38
2024-02-01T07:25:12.364Z,100010.81
2024-02-01T07:27:58.183Z,100018.78
2024-02-01T07:30:43.703Z,100024.75
2024-02-01T07:33:28.928Z,100023.38
2024-02-01T07:36:14.288Z,100026.75
2024-02-01T07:38:59.856Z,100027.56
2024-02-01T07:41:45.106Z,100024.75
2024-02-01T07:44:30.216Z,100030.16
2024-02-01T07:47:15.744Z,100047.28
2024-02-01T07:50:01.245Z,100029.94
2024-02-01T07:52:47.133Z,100043.44
2024-02-01T07:55:32.207Z,100041.66
2024-02-01T07:58:09.088Z,100050.22
2024-02-01T08:00:36.773Z,100050.44
2024-02-01T08:03:06.105Z,100053.81
2024-02-01T08:05:52.234Z,100055.81
2024-02-01T08:08:18.995Z,100055.59
2024-02-01T08:10:46.568Z,100055.81
2024-02-01T08:13:16.744Z,100069.13
2024-02-01T08:15:43.900Z,100061.94
2024-02-01T08:18:11.466Z,100064.28
2024-02-01T08:20:42.017Z,100074.88
2024-02-01T08:23:09.881Z,100079.25
2024-02-01T08:25:41.817Z,100079.03
2024-02-01T08:28:12.083Z,100080.06
2024-02-01T08:30:39.235Z,100087.03
2024-02-01T08:33:06.280Z,100088.97
2024-02-01T08:35:36.194Z,100092.34
2024-02-01T08:38:04.284Z,100096.50
2024-02-01T08:40:31.721Z,100096.28
2024-02-01T08:43:02.557Z,100104.06
2024-02-01T08:45:30.829Z,100104.06
2024-02-01T08:48:02.313Z,100106.22
2024-02-01T08:50:36.783Z,100105.19
2024-02-01T08:53:03.743Z,100110.97
2024-02-01T08:55:32.057Z,100113.69
2024-02-01T08:58:09.770Z,100117.41
2024-02-01T09:00:37.674Z,100118.78
2024-02-01T09:03:12.499Z,100115.53
2024-02-01T09:05:41.129Z,100125.22
2024-02-01T09:08:10.366Z,100135.94
2024-02-01T09:10:37.066Z,100134.13
2024-02-01T09:13:04.006Z,100132.69
2024-02-01T09:15:34.391Z,100142.25
2024-02-01T09:18:01.334Z,100134.47
2024-02-01T09:20:28.572Z,100155.66
2024-02-01T09:22:57.556Z,100148.88
2024-02-01T09:25:26.495Z,100152.06
2024-02-01T09:27:54.523Z,100161.19
2024-02-01T09:30:27.417Z,100159.72
2024-02-01T09:32:57.644Z,100160.88
2024-02-01T09:35:25.219Z,100162.44
2024-02-01T09:37:54.606Z,100152.66
2024-02-01T09:40:22.659Z,100163.59
2024-02-01T09:42:50.736Z,100163.25
2024-02-01T09:45:22.141Z,100168.44
2024-02-01T09:47:49.644Z,100173.53
2024-02-01T09:50:22.631Z,100165.41
2024-02-01T09:52:51.966Z,100171.16
2024-02-01T09:55:21.270Z,100176.91
2024-02-01T09:57:49.816Z,100169.47
2024-02-01T10:00:23.577Z,100169.47
2024-02-01T10:02:55.536Z,100173.78
2024-02-01T10:05:24.213Z,100167.72
2024-02-01T10:08:00.693Z,100172.38
2024-02-01T10:10:27.596Z,100160.41
2024-02-01T10:12:59.758Z,100164.97
2024-02-01T10:15:31.595Z,100158.75
2024-02-01T10:17:59.619Z,100158.53
2024-02-01T10:20:36.807Z,100164.50
2024-02-01T10:23:08.116Z,100152.44
2024-02-01T10:25:40.092Z,100156.19
2024-02-01T10:28:12.991Z,100149.84
2024-02-01T10:30:42.931Z,100155.06
2024-02-01T10:33:15.511Z,100154.69
2024-02-01T10:35:43.946Z,100144.09
2024-02-01T10:38:14.772Z,100143.75
2024-02-01T10:40:54.716Z,100143.50
2024-02-01T10:43:25.190Z,100155.69
2024-02-01T10:46:06.793Z,100145.09
2024-02-01T10:48:53.848Z,100144.78
2024-02-01T10:51:21.740Z,100136.25
2024-02-01T10:53:49.077Z,100139.22
2024-02-01T10:56:17.988Z,100131.69
2024-02-01T10:58:55.128Z,100128.06
2024-02-01T11:01:26.701Z,100131.69
2024-02-01T11:03:57.773Z,100133.91
2024-02-01T11:06:26.680Z,100125.53
2024-02-01T11:08:55.793Z,100124.59
2024-02-01T11:11:33.881Z,100127.59
2024-02-01T11:14:07.991Z,100129.69
2024-02-01T11:16:54.970Z,100128.91
2024-02-01T11:19:26.967Z,100137.44
2024-02-01T11:21:56.465Z,100128.78
2024-02-01T11:24:28.031Z,100130.13
2024-02-01T11:26:56.805Z,100136.22
2024-02-01T11:29:25.812Z,100139.38
2024-02-01T11:32:04.187Z,100149.84
2024-02-01T11:34:34.661Z,100142.31
2024-02-01T11:37:03.003Z,100146.91
2024-02-01T11:39:29.714Z,100150.69
2024-02-01T11:41:58.347Z,100146.38
2024-02-01T11:44:25.575Z,100158.69
2024-02-01T11:46:55.856Z,100155.59
2024-02-01T11:49:28.086Z,100151.22
2024-02-01T11:52:04.085Z,100147.53
2024-02-01T11:54:30.986Z,100152.84
2024-02-01T11:56:57.692Z,100154.56
2024-02-01T11:59:27.099Z,100161.91
2024-02-01T12:01:54.394Z,100161.22
2024-02-01T12:04:22.483Z,100159.63
2024-02-01T12:06:50.114Z,100158.06
2024-02-01T12:09:16.900Z,100158.09
2024-02-01T12:11:45.388Z,100168.59
2024-02-01T12:14:22.298Z,100158.53
2024-02-01T12:16:55.017Z,100158.25
2024-02-01T12:19:29.208Z,100159.22
2024-02-01T12:21:56.616Z,100175.25
2024-02-01T12:24:28.112Z,100163.66
2024-02-01T12:26:55.553Z,100172.72
2024-02-01T12:29:23.354Z,100165.53
2024-02-01T12:31:52.185Z,100165.38
2024-02-01T12:34:22.025Z,100170.25
2024-02-01T12:36:49.892Z,100162.69
2024-02-01T12:39:17.370Z,100166.78
2024-02-01T12:41:46.904Z,100168.50
2024-02-01T12:44:15.293Z,100165.19
2024-02-01T12:46:46.463Z,100177.53
2024-02-01T12:49:14.699Z,100169.91
2024-02-01T12:51:43.330Z,100174.31
2024-02-01T12:54:11.033Z,100152.94
2024-02-01T12:56:40.055Z,100165.31
2024-02-01T12:59:11.217Z,100168.97
2024-02-01T13:01:42.741Z,100167.97
2024-02-01T13:04:10.035Z,100156.22
2024-02-01T13:06:37.144Z,100162.66
2024-02-01T13:09:04.304Z,100161.47
2024-02-01T13:11:31.570Z,100165.53
2024-02-01T13:13:59.364Z,100160.91
2024-02-01T13:16:27.409Z,100159.34
2024-02-01T13:18:57.403Z,100171.22
2024-02-01T13:21:24.820Z,100168.59
2024-02-01T13:23:52.592Z,100162.38
2024-02-01T13:26:19.381Z,100171.91
2024-02-01T13:28:47.310Z,100173.72
2024-02-01T13:31:14.239Z,100162.66
2024-02-01T13:33:42.034Z,100168.66
2024-02-01T13:36:10.545Z,100166.59
2024-02-01T13:38:37.578Z,100178.25
2024-02-01T13:41:05.540Z,100183.69
2024-02-01T13:43:32.674Z,100173.50
2024-02-01T13:45:59.356Z,100184.13
2024-02-01T13:51:14.727Z,100189.66
2024-02-01T13:53:41.423Z,100192.16
2024-02-01T13:56:09.779Z,100200.19
2024-02-01T13:58:36.565Z,100201.88
2024-02-01T14:01:03.689Z,100193.75
2024-02-01T14:03:31.485Z,100192.75
2024-02-01T14:05:58.749Z,100199.50
2024-02-01T14:08:26.145Z,100199.63
2024-02-01T14:10:54.975Z,100202.91
2024-02-01T14:13:21.966Z,100205.16
2024-02-01T14:15:48.749Z,100193.63
2024-02-01T14:18:15.459Z,100207.53
2024-02-01T14:20:42.331Z,100207.63
2024-02-01T14:23:09.044Z,100217.91
2024-02-01T14:25:35.842Z,100220.94
2024-02-01T14:28:02.574Z,100233.38
2024-02-01T14:30:29.404Z,100232.91
2024-02-01T14:32:56.312Z,100242.16
2024-02-01T14:35:23.675Z,100238.66
2024-02-01T14:37:50.419Z,100240.13
2024-02-01T14:40:17.129Z,100236.06
2024-02-01T14:42:44.064Z,100238.31
2024-02-01T14:45:11.082Z,100240.25
2024-02-01T14:47:38.494Z,100244.19
2024-02-01T14:50:06.416Z,100243.41
2024-02-01T14:52:33.308Z,100263.03
2024-02-01T14:55:00.271Z,100246.66
2024-02-01T14:57:27.100Z,100257.38
2024-02-01T14:59:53.840Z,100266.41
2024-02-01T15:02:20.552Z,100262.66
2024-02-01T15:04:47.282Z,100272.03
2024-02-01T15:07:13.968Z,100275.50
2024-02-01T15:09:41.142Z,100281.59
2024-02-01T15:12:08.082Z,100287.09
2024-02-01T15:14:36.591Z,100288.94
2024-02-01T15:17:07.414Z,100285.22
2024-02-01T15:19:34.590Z,100277.31
2024-02-01T15:22:04.001Z,100288.75
2024-02-01T15:24:31.073Z,100297.69
2024-02-01T15:26:58.184Z,100298.91
2024-02-01T15:29:25.280Z,100299.22
2024-02-01T15:31:52.959Z,100303.47
2024-02-01T15:34:20.286Z,100318.38
2024-02-01T15:36:47.128Z,100313.28
2024-02-01T15:39:17.944Z,100321.03
2024-02-01T15:41:45.413Z,100325.44
2024-02-01T15:44:12.969Z,100328.09
2024-02-01T15:46:40.049Z,100334.38
2024-02-01T15:49:08.831Z,100345.59
2024-02-01T15:51:36.041Z,100340.50
2024-02-01T15:54:03.264Z,100350.34
2024-02-01T15:56:29.988Z,100350.34
2024-02-01T15:58:56.670Z,100344.56
2024-02-01T16:01:23.454Z,100357.97
2024-02-01T16:03:50.279Z,100350.19
2024-02-01T16:06:19.255Z,100347.88
2024-02-01T16:08:52.731Z,100346.13
2024-02-01T16:11:21.608Z,100360.72
2024-02-01T16:13:58.039Z,100370.13
2024-02-01T16:16:37.053Z,100375.56
2024-02-01T16:19:05.778Z,100368.03
2024-02-01T16:21:33.697Z,100374.44
2024-02-01T16:24:05.677Z,100377.41
2024-02-01T16:26:32.961Z,100392.34
2024-02-01T16:29:00.473Z,100394.56
2024-02-01T16:31:27.624Z,100404.34
2024-02-01T16:34:17.233Z,100403.91
2024-02-01T16:36:55.068Z,100406.13
2024-02-01T16:39:33.735Z,100413.72
2024-02-01T16:42:22.461Z,100411.97
2024-02-01T16:44:53.416Z,100415.19
2024-02-01T16:47:51.202Z,100428.34
2024-02-01T16:50:31.814Z,100432.75
2024-02-01T16:53:02.942Z,100422.63
2024-02-01T16:55:44.542Z,100428.59
2024-02-01T16:58:32.968Z,100436.78
2024-02-01T17:00:59.839Z,100437.00
2024-02-01T17:03:28.479Z,100443.75
2024-02-01T17:05:57.736Z,100450.94
2024-02-01T17:08:41.484Z,100452.72
2024-02-01T17:11:08.956Z,100456.09
2024-02-01T17:13:35.724Z,100444.78
2024-02-01T17:16:03.564Z,100450.78
2024-02-01T17:18:34.418Z,100450.97
2024-02-01T17:21:05.442Z,100457.75
2024-02-01T17:23:32.289Z,100447.22
2024-02-01T17:26:07.704Z,100450.41
2024-02-01T17:28:38.456Z,100456.19
2024-02-01T17:31:15.029Z,100453.63
2024-02-01T17:33:50.093Z,100449.25
2024-02-01T17:36:18.476Z,100450.06
2024-02-01T17:38:52.578Z,100443.50
2024-02-01T17:41:22.884Z,100440.13
2024-02-01T17:43:49.804Z,100443.47
2024-02-01T17:46:31.772Z,100443.44
2024-02-01T17:49:03.220Z,100448.78
2024-02-01T17:51:34.364Z,100451.34
2024-02-01T17:54:02.277Z,100455.47
2024-02-01T17:56:35.920Z,100452.69
2024-02-01T17:59:04.718Z,100453.66
2024-02-01T18:01:36.777Z,100460.00
2024-02-01T18:04:32.231Z,100457.19
2024-02-01T18:07:02.021Z,100458.75
2024-02-01T18:09:38.290Z,100454.97
2024-02-01T18:12:09.497Z,100454.59
2024-02-01T18:14:36.364Z,100451.78
2024-02-01T18:17:04.846Z,100448.41
2024-02-01T18:19:32.950Z,100456.19
2024-02-01T18:22:00.500Z,100457.19
2024-02-01T18:24:31.146Z,100464.53
2024-02-01T18:26:58.270Z,100468.13
2024-02-01T18:30:03.390Z,100463.53
2024-02-01T18:32:32.535Z,100482.81
2024-02-01T18:35:00.559Z,100472.88
2024-02-01T18:37:31.647Z,100472.09
2024-02-01T18:39:58.553Z,100471.13
2024-02-01T18:42:30.290Z,100475.28
2024-02-01T18:44:57.046Z,100475.09
2024-02-01T18:47:31.355Z,100467.91
2024-02-01T18:50:00.205Z,100472.88
2024-02-01T18:52:27.528Z,100477.06
2024-02-01T18:54:54.919Z,100476.88
2024-02-01T18:57:34.792Z,100478.28
2024-02-01T19:00:05.504Z,100477.91
2024-02-01T19:02:52.962Z,100481.28
2024-02-01T19:05:20.209Z,100482.91
2024-02-01T19:07:55.827Z,100493.25
2024-02-01T19:10:38.846Z,100484.13
2024-02-01T19:13:19.039Z,100488.91
2024-02-01T19:15:50.724Z,100488.50
2024-02-01T19:18:19.104Z,100490.09
2024-02-01T19:20:47.299Z,100491.88
2024-02-01T19:23:19.575Z,100488.28
2024-02-01T19:25:47.178Z,100494.06
2024-02-01T19:28:37.070Z,100493.81
2024-02-01T19:31:03.995Z,100502.97
2024-02-01T19:33:31.611Z,100501.78
2024-02-01T19:35:58.653Z,100499.78
2024-02-01T19:38:26.034Z,100506.75
2024-02-01T19:40:54.537Z,100506.56
2024-02-01T19:43:22.938Z,100504.41
2024-02-01T19:45:49.792Z,100505.22
2024-02-01T19:48:16.951Z,100513.97
2024-02-01T19:50:43.884Z,100503.44
2024-02-01T19:53:11.348Z,100514.56
2024-02-01T19:55:37.986Z,100513.75
2024-02-01T19:58:04.958Z,100525.28
2024-02-01T20:00:31.825Z,100528.47
2024-02-01T20:02:58.748Z,100526.25
2024-02-01T20:05:25.516Z,100522.88
2024-02-01T20:07:52.288Z,100518.91
2024-02-01T20:10:19.024Z,100522.09
2024-02-01T20:12:46.725Z,100525.06
2024-02-01T20:15:13.613Z,100522.47
2024-02-01T20:17:40.434Z,100530.59
2024-02-01T20:20:27.626Z,100523.25
2024-02-01T20:22:54.521Z,100514.28
2024-02-01T20:25:25.852Z,100534.03
2024-02-01T20:28:00.709Z,100533.03
2024-02-01T20:30:29.624Z,100527.66
2024-02-01T20:32:59.093Z,100530.44
2024-02-01T20:35:26.204Z,100529.84
2024-02-01T20:37:55.922Z,100531.44
2024-02-01T20:40:34.505Z,100527.47
2024-02-01T20:43:01.457Z,100537.59
2024-02-01T20:45:29.933Z,100537.00
2024-02-01T20:47:57.448Z,100541.19
2024-02-01T20:50:36.342Z,100537.00
2024-02-01T20:53:37.588Z,100538.41
2024-02-01T20:56:05.342Z,100534.81
2024-02-01T20:58:51.578Z,100545.75
2024-02-01T21:01:20.305Z,100543.38
2024-02-01T21:03:47.210Z,100544.38
2024-02-01T21:06:14.103Z,100542.56
2024-02-01T21:08:42.713Z,100542.97
2024-02-01T21:11:37.809Z,100546.34
2024-02-01T21:14:19.116Z,100543.75
2024-02-01T21:16:53.446Z,100550.31
2024-02-01T21:19:21.550Z,100550.31
2024-02-01T21:21:48.778Z,100553.91
2024-02-01T21:24:16.648Z,100542.53
2024-02-01T21:26:44.311Z,100534.56
2024-02-01T21:29:18.618Z,100545.72
2024-02-01T21:31:49.806Z,100537.56
2024-02-01T21:34:22.398Z,100541.38
2024-02-01T21:37:06.421Z,100539.78
2024-02-01T21:39:49.818Z,100532.44
2024-02-01T21:42:48.625Z,100538.59
2024-02-01T21:45:23.224Z,100541.19
2024-02-01T21:47:51.822Z,100536.44
2024-02-01T21:50:21.625Z,100540.00
2024-02-01T21:52:48.488Z,100528.88
2024-02-01T21:55:15.426Z,100529.06
2024-02-01T21:57:42.454Z,100529.91
2024-02-01T22:00:11.941Z,100536.69
2024-02-01T22:02:39.251Z,100537.28
2024-02-01T22:05:06.421Z,100538.09
2024-02-01T22:07:33.565Z,100529.13
2024-02-01T22:10:00.464Z,100537.09
2024-02-01T22:12:27.352Z,100532.13
2024-02-01T22:14:56.462Z,100535.72
2024-02-01T22:17:24.217Z,100538.31
2024-02-01T22:19:50.987Z,100542.47
2024-02-01T22:22:17.798Z,100537.91
2024-02-01T22:24:45.715Z,100545.47
2024-02-01T22:27:15.409Z,100541.88
2024-02-01T22:29:42.210Z,100550.22
2024-02-01T22:32:09.008Z,100547.63
2024-02-01T22:34:36.213Z,100555.00
2024-02-01T22:37:03.079Z,100564.34
2024-02-01T22:39:30.230Z,100552.63
2024-02-01T22:41:57.095Z,100557.22
2024-02-01T22:44:24.069Z,100556.63
2024-02-01T22:46:50.756Z,100548.66
2024-02-01T22:49:17.693Z,100560.19
2024-02-01T22:51:44.457Z,100565.38
2024-02-01T22:54:11.215Z,100563.97
2024-02-01T22:56:37.966Z,100558.00
2024-02-01T22:59:04.768Z,100567.38
2024-02-01T23:01:31.625Z,100563.19
2024-02-01T23:03:58.734Z,100560.59
2024-02-01T23:06:25.737Z,100557.81
2024-02-01T23:08:52.514Z,100566.59
2024-02-01T23:11:19.230Z,100567.97
2024-02-01T23:13:46.084Z,100559.41
2024-02-01T23:16:13.520Z,100552.44
2024-02-01T23:18:40.932Z,100563.78
2024-02-01T23:21:07.999Z,100564.00
2024-02-01T23:23:35.183Z,100554.06
2024-02-01T23:26:01.974Z,100551.28
2024-02-01T23:28:29.020Z,100556.66
2024-02-01T23:30:55.734Z,100559.63
2024-02-01T23:33:23.026Z,100554.84
2024-02-01T23:35:49.945Z,100558.03
2024-02-01T23:38:16.822Z,100551.66
2024-02-01T23:40:43.705Z,100551.28
2024-02-01T23:43:10.596Z,100557.06
2024-02-01T23:45:37.363Z,100558.25
2024-02-01T23:48:04.813Z,100555.25
2024-02-01T23:50:31.671Z,100573.56
2024-02-01T23:52:58.423Z,100557.84
2024-02-01T23:55:25.087Z,100556.84
2024-02-01T23:57:51.866Z,100554.28
